sensor_id;sensor_type;location;lat;lon;timestamp;temperature;humidity
38582;DHT22;24349;53.720;10.014;2022-12-08T00:01:21;1.50;99.90
38582;DHT22;24349;53.720;10.014;2022-12-08T00:03:47;1.50;99.90
38582;DHT22;24349;53.720;10.014;2022-12-08T00:09:09;1.50;99.90
38582;DHT22;24349;53.720;10.014;2022-12-08T00:14:21;1.50;99.90
38582;DHT22;24349;53.720;10.014;2022-12-08T00:16:47;1.50;99.90
38582;DHT22;24349;53.720;10.014;2022-12-08T00:19:13;1.50;99.90
38582;DHT22;24349;53.720;10.014;2022-12-08T00:21:38;1.50;99.90
38582;DHT22;24349;53.720;10.014;2022-12-08T00:24:04;1.50;99.90
38582;DHT22;24349;53.720;10.014;2022-12-08T00:26:29;1.50;99.90
38582;DHT22;24349;53.720;10.014;2022-12-08T00:28:55;1.60;99.90
38582;DHT22;24349;53.720;10.014;2022-12-08T00:31:20;1.60;99.90
38582;DHT22;24349;53.720;10.014;2022-12-08T00:33:45;1.60;99.90
38582;DHT22;24349;53.720;10.014;2022-12-08T00:36:12;1.60;99.90
38582;DHT22;24349;53.720;10.014;2022-12-08T00:38:38;1.60;99.90
38582;DHT22;24349;53.720;10.014;2022-12-08T00:41:17;1.60;99.90
38582;DHT22;24349;53.720;10.014;2022-12-08T00:43:43;1.70;99.90
38582;DHT22;24349;53.720;10.014;2022-12-08T00:46:09;1.60;99.90
38582;DHT22;24349;53.720;10.014;2022-12-08T00:48:34;1.60;99.90
38582;DHT22;24349;53.720;10.014;2022-12-08T00:51:00;1.60;99.90
38582;DHT22;24349;53.720;10.014;2022-12-08T00:53:25;1.60;99.90
38582;DHT22;24349;53.720;10.014;2022-12-08T00:55:51;1.70;99.90
38582;DHT22;24349;53.720;10.014;2022-12-08T00:58:16;1.70;99.90
38582;DHT22;24349;53.720;10.014;2022-12-08T01:00:42;1.70;99.90
38582;DHT22;24349;53.720;10.014;2022-12-08T01:03:08;1.70;99.90
38582;DHT22;24349;53.720;10.014;2022-12-08T01:05:34;1.70;99.90
38582;DHT22;24349;53.720;10.014;2022-12-08T01:07:59;1.70;99.90
38582;DHT22;24349;53.720;10.014;2022-12-08T01:10:25;1.70;99.90
38582;DHT22;24349;53.720;10.014;2022-12-08T01:12:50;1.70;99.90
38582;DHT22;24349;53.720;10.014;2022-12-08T01:15:16;1.70;99.90
38582;DHT22;24349;53.720;10.014;2022-12-08T01:17:41;1.80;99.90
38582;DHT22;24349;53.720;10.014;2022-12-08T01:20:07;1.70;99.90
38582;DHT22;24349;53.720;10.014;2022-12-08T01:22:33;1.80;99.90
38582;DHT22;24349;53.720;10.014;2022-12-08T01:25:00;1.70;99.90
38582;DHT22;24349;53.720;10.014;2022-12-08T01:27:26;1.60;99.90
38582;DHT22;24349;53.720;10.014;2022-12-08T01:29:51;1.60;99.90
38582;DHT22;24349;53.720;10.014;2022-12-08T01:32:17;1.60;99.90
38582;DHT22;24349;53.720;10.014;2022-12-08T01:34:42;1.60;99.90
38582;DHT22;24349;53.720;10.014;2022-12-08T01:37:08;1.60;99.90
38582;DHT22;24349;53.720;10.014;2022-12-08T01:39:33;1.60;99.90
38582;DHT22;24349;53.720;10.014;2022-12-08T01:41:59;1.70;99.90
38582;DHT22;24349;53.720;10.014;2022-12-08T01:46:50;1.80;99.90
38582;DHT22;24349;53.720;10.014;2022-12-08T01:49:18;1.70;99.90
38582;DHT22;24349;53.720;10.014;2022-12-08T01:54:23;1.70;99.90
38582;DHT22;24349;53.720;10.014;2022-12-08T01:56:51;1.70;99.90
38582;DHT22;24349;53.720;10.014;2022-12-08T01:59:20;1.70;99.90
38582;DHT22;24349;53.720;10.014;2022-12-08T02:01:46;1.80;99.90
38582;DHT22;24349;53.720;10.014;2022-12-08T02:04:12;1.80;99.90
38582;DHT22;24349;53.720;10.014;2022-12-08T02:06:39;1.80;99.90
38582;DHT22;24349;53.720;10.014;2022-12-08T02:09:06;1.70;99.90
38582;DHT22;24349;53.720;10.014;2022-12-08T02:11:31;1.80;99.90
38582;DHT22;24349;53.720;10.014;2022-12-08T02:13:57;1.80;99.90
38582;DHT22;24349;53.720;10.014;2022-12-08T02:21:52;1.90;99.90
38582;DHT22;24349;53.720;10.014;2022-12-08T02:34:56;1.70;99.90
38582;DHT22;24349;53.720;10.014;2022-12-08T02:44:47;1.70;99.90
38582;DHT22;24349;53.720;10.014;2022-12-08T02:47:19;1.70;99.90
38582;DHT22;24349;53.720;10.014;2022-12-08T02:49:46;1.70;99.90
38582;DHT22;24349;53.720;10.014;2022-12-08T02:54:38;1.60;99.90
38582;DHT22;24349;53.720;10.014;2022-12-08T02:57:11;1.70;99.90
38582;DHT22;24349;53.720;10.014;2022-12-08T03:02:09;1.70;99.90
38582;DHT22;24349;53.720;10.014;2022-12-08T03:04:45;1.70;99.90
38582;DHT22;24349;53.720;10.014;2022-12-08T03:12:29;1.70;99.90
38582;DHT22;24349;53.720;10.014;2022-12-08T03:14:55;1.70;99.90
38582;DHT22;24349;53.720;10.014;2022-12-08T03:17:23;1.70;99.90
38582;DHT22;24349;53.720;10.014;2022-12-08T03:19:50;1.70;99.90
38582;DHT22;24349;53.720;10.014;2022-12-08T03:22:19;1.70;99.90
38582;DHT22;24349;53.720;10.014;2022-12-08T03:24:45;1.70;99.90
38582;DHT22;24349;53.720;10.014;2022-12-08T03:27:13;1.80;99.90
38582;DHT22;24349;53.720;10.014;2022-12-08T03:29:40;1.80;99.90
38582;DHT22;24349;53.720;10.014;2022-12-08T03:32:08;1.90;99.90
38582;DHT22;24349;53.720;10.014;2022-12-08T03:34:35;1.90;99.90
38582;DHT22;24349;53.720;10.014;2022-12-08T03:37:01;1.90;99.90
38582;DHT22;24349;53.720;10.014;2022-12-08T03:39:27;1.90;99.90
38582;DHT22;24349;53.720;10.014;2022-12-08T03:41:52;2.00;99.90
38582;DHT22;24349;53.720;10.014;2022-12-08T03:44:18;2.00;99.90
38582;DHT22;24349;53.720;10.014;2022-12-08T03:46:43;1.90;99.90
38582;DHT22;24349;53.720;10.014;2022-12-08T03:49:10;1.90;99.90
38582;DHT22;24349;53.720;10.014;2022-12-08T03:51:35;2.00;99.90
38582;DHT22;24349;53.720;10.014;2022-12-08T03:54:01;2.00;99.90
38582;DHT22;24349;53.720;10.014;2022-12-08T03:56:36;2.00;99.90
38582;DHT22;24349;53.720;10.014;2022-12-08T03:59:02;2.10;99.90
38582;DHT22;24349;53.720;10.014;2022-12-08T04:01:28;2.00;99.90
38582;DHT22;24349;53.720;10.014;2022-12-08T04:03:53;2.00;99.90
38582;DHT22;24349;53.720;10.014;2022-12-08T04:06:19;2.00;99.90
38582;DHT22;24349;53.720;10.014;2022-12-08T04:08:45;2.10;99.90
38582;DHT22;24349;53.720;10.014;2022-12-08T04:11:11;2.10;99.90
38582;DHT22;24349;53.720;10.014;2022-12-08T04:13:37;2.10;99.90
38582;DHT22;24349;53.720;10.014;2022-12-08T04:16:03;2.10;99.90
38582;DHT22;24349;53.720;10.014;2022-12-08T04:18:29;2.00;99.90
38582;DHT22;24349;53.720;10.014;2022-12-08T04:20:54;2.10;99.90
38582;DHT22;24349;53.720;10.014;2022-12-08T04:23:20;2.10;99.90
38582;DHT22;24349;53.720;10.014;2022-12-08T04:25:45;2.10;99.90
38582;DHT22;24349;53.720;10.014;2022-12-08T04:28:11;2.00;99.90
38582;DHT22;24349;53.720;10.014;2022-12-08T04:30:37;2.00;99.90
38582;DHT22;24349;53.720;10.014;2022-12-08T04:33:03;2.00;99.90
38582;DHT22;24349;53.720;10.014;2022-12-08T04:35:28;2.00;99.90
38582;DHT22;24349;53.720;10.014;2022-12-08T04:37:54;2.10;99.90
38582;DHT22;24349;53.720;10.014;2022-12-08T04:40:20;2.10;99.90
38582;DHT22;24349;53.720;10.014;2022-12-08T04:42:45;2.10;99.90
38582;DHT22;24349;53.720;10.014;2022-12-08T04:45:11;2.10;99.90
38582;DHT22;24349;53.720;10.014;2022-12-08T04:47:36;2.10;99.90
38582;DHT22;24349;53.720;10.014;2022-12-08T04:50:02;2.00;99.90
38582;DHT22;24349;53.720;10.014;2022-12-08T04:52:28;2.00;99.90
38582;DHT22;24349;53.720;10.014;2022-12-08T04:54:53;1.90;99.90
38582;DHT22;24349;53.720;10.014;2022-12-08T04:57:18;2.00;99.90
38582;DHT22;24349;53.720;10.014;2022-12-08T04:59:44;2.00;99.90
38582;DHT22;24349;53.720;10.014;2022-12-08T05:02:09;2.00;99.90
38582;DHT22;24349;53.720;10.014;2022-12-08T05:04:35;2.00;99.90
38582;DHT22;24349;53.720;10.014;2022-12-08T05:07:00;2.00;99.90
38582;DHT22;24349;53.720;10.014;2022-12-08T05:09:26;2.00;99.90
38582;DHT22;24349;53.720;10.014;2022-12-08T05:11:52;2.00;99.90
38582;DHT22;24349;53.720;10.014;2022-12-08T05:14:18;2.00;99.90
38582;DHT22;24349;53.720;10.014;2022-12-08T05:16:44;2.10;99.90
38582;DHT22;24349;53.720;10.014;2022-12-08T05:19:10;2.20;99.90
38582;DHT22;24349;53.720;10.014;2022-12-08T05:21:35;2.30;99.90
38582;DHT22;24349;53.720;10.014;2022-12-08T05:24:01;2.30;99.90
38582;DHT22;24349;53.720;10.014;2022-12-08T05:26:26;2.30;99.90
38582;DHT22;24349;53.720;10.014;2022-12-08T05:28:52;2.30;99.90
38582;DHT22;24349;53.720;10.014;2022-12-08T05:31:17;2.30;99.90
38582;DHT22;24349;53.720;10.014;2022-12-08T05:33:43;2.30;99.90
38582;DHT22;24349;53.720;10.014;2022-12-08T05:36:13;2.30;99.90
38582;DHT22;24349;53.720;10.014;2022-12-08T05:38:39;2.30;99.90
38582;DHT22;24349;53.720;10.014;2022-12-08T05:41:05;2.20;99.90
38582;DHT22;24349;53.720;10.014;2022-12-08T05:43:31;2.10;99.90
38582;DHT22;24349;53.720;10.014;2022-12-08T05:45:57;2.10;99.90
38582;DHT22;24349;53.720;10.014;2022-12-08T05:48:22;2.10;99.90
38582;DHT22;24349;53.720;10.014;2022-12-08T05:50:48;2.10;99.90
38582;DHT22;24349;53.720;10.014;2022-12-08T05:53:15;2.10;99.90
38582;DHT22;24349;53.720;10.014;2022-12-08T05:55:40;2.10;99.90
38582;DHT22;24349;53.720;10.014;2022-12-08T05:58:06;2.10;99.90
38582;DHT22;24349;53.720;10.014;2022-12-08T06:00:33;2.20;99.90
38582;DHT22;24349;53.720;10.014;2022-12-08T06:02:59;2.20;99.90
38582;DHT22;24349;53.720;10.014;2022-12-08T06:05:25;2.10;99.90
38582;DHT22;24349;53.720;10.014;2022-12-08T06:07:50;2.10;99.90
38582;DHT22;24349;53.720;10.014;2022-12-08T06:10:16;2.10;99.90
38582;DHT22;24349;53.720;10.014;2022-12-08T06:12:42;2.20;99.90
38582;DHT22;24349;53.720;10.014;2022-12-08T06:15:07;2.20;99.90
38582;DHT22;24349;53.720;10.014;2022-12-08T06:17:33;2.30;99.90
38582;DHT22;24349;53.720;10.014;2022-12-08T06:19:58;2.30;99.90
38582;DHT22;24349;53.720;10.014;2022-12-08T06:22:24;2.30;99.90
38582;DHT22;24349;53.720;10.014;2022-12-08T06:24:49;2.30;99.90
38582;DHT22;24349;53.720;10.014;2022-12-08T06:27:15;2.30;99.90
38582;DHT22;24349;53.720;10.014;2022-12-08T06:29:40;2.20;99.90
38582;DHT22;24349;53.720;10.014;2022-12-08T06:32:06;2.20;99.90
38582;DHT22;24349;53.720;10.014;2022-12-08T06:34:31;2.20;99.90
38582;DHT22;24349;53.720;10.014;2022-12-08T06:36:57;2.10;99.90
38582;DHT22;24349;53.720;10.014;2022-12-08T06:39:22;2.20;99.90
38582;DHT22;24349;53.720;10.014;2022-12-08T06:41:48;2.10;99.90
38582;DHT22;24349;53.720;10.014;2022-12-08T06:44:32;2.10;99.90
38582;DHT22;24349;53.720;10.014;2022-12-08T06:46:57;2.00;99.90
38582;DHT22;24349;53.720;10.014;2022-12-08T06:49:23;2.00;99.90
38582;DHT22;24349;53.720;10.014;2022-12-08T06:51:48;2.00;99.90
38582;DHT22;24349;53.720;10.014;2022-12-08T06:54:14;2.10;99.90
38582;DHT22;24349;53.720;10.014;2022-12-08T06:56:39;2.10;99.90
38582;DHT22;24349;53.720;10.014;2022-12-08T06:59:05;2.10;99.90
38582;DHT22;24349;53.720;10.014;2022-12-08T07:01:30;2.10;99.90
38582;DHT22;24349;53.720;10.014;2022-12-08T07:03:56;2.10;99.90
38582;DHT22;24349;53.720;10.014;2022-12-08T07:06:22;2.10;99.90
38582;DHT22;24349;53.720;10.014;2022-12-08T07:08:48;2.20;99.90
38582;DHT22;24349;53.720;10.014;2022-12-08T07:11:14;2.10;99.90
38582;DHT22;24349;53.720;10.014;2022-12-08T07:13:40;2.10;99.90
38582;DHT22;24349;53.720;10.014;2022-12-08T07:16:09;2.00;99.90
38582;DHT22;24349;53.720;10.014;2022-12-08T07:18:35;2.00;99.90
38582;DHT22;24349;53.720;10.014;2022-12-08T07:21:08;2.00;99.90
38582;DHT22;24349;53.720;10.014;2022-12-08T07:23:34;2.00;99.90
38582;DHT22;24349;53.720;10.014;2022-12-08T07:26:00;2.00;99.90
38582;DHT22;24349;53.720;10.014;2022-12-08T07:28:28;1.90;99.90
38582;DHT22;24349;53.720;10.014;2022-12-08T07:30:53;2.00;99.90
38582;DHT22;24349;53.720;10.014;2022-12-08T07:33:19;2.00;99.90
38582;DHT22;24349;53.720;10.014;2022-12-08T07:35:52;2.00;99.90
38582;DHT22;24349;53.720;10.014;2022-12-08T07:38:17;2.00;99.90
38582;DHT22;24349;53.720;10.014;2022-12-08T07:40:43;2.10;99.90
38582;DHT22;24349;53.720;10.014;2022-12-08T07:43:08;2.00;99.90
38582;DHT22;24349;53.720;10.014;2022-12-08T07:45:34;2.10;99.90
38582;DHT22;24349;53.720;10.014;2022-12-08T07:47:59;2.10;99.90
38582;DHT22;24349;53.720;10.014;2022-12-08T07:50:25;2.10;99.90
38582;DHT22;24349;53.720;10.014;2022-12-08T07:52:50;2.00;99.90
38582;DHT22;24349;53.720;10.014;2022-12-08T07:55:16;2.10;99.90
38582;DHT22;24349;53.720;10.014;2022-12-08T07:57:41;1.90;99.90
38582;DHT22;24349;53.720;10.014;2022-12-08T08:00:07;2.00;99.90
38582;DHT22;24349;53.720;10.014;2022-12-08T08:02:32;2.00;99.90
38582;DHT22;24349;53.720;10.014;2022-12-08T08:04:58;2.00;99.90
38582;DHT22;24349;53.720;10.014;2022-12-08T08:07:23;2.00;99.90
38582;DHT22;24349;53.720;10.014;2022-12-08T08:09:49;2.00;99.90
38582;DHT22;24349;53.720;10.014;2022-12-08T08:12:14;2.00;99.90
38582;DHT22;24349;53.720;10.014;2022-12-08T08:14:40;2.00;99.90
38582;DHT22;24349;53.720;10.014;2022-12-08T08:17:05;2.00;99.90
38582;DHT22;24349;53.720;10.014;2022-12-08T08:19:31;2.00;99.90
38582;DHT22;24349;53.720;10.014;2022-12-08T08:21:56;2.00;99.90
38582;DHT22;24349;53.720;10.014;2022-12-08T08:24:22;2.10;99.90
38582;DHT22;24349;53.720;10.014;2022-12-08T08:26:48;2.10;99.90
38582;DHT22;24349;53.720;10.014;2022-12-08T08:29:14;2.10;99.90
38582;DHT22;24349;53.720;10.014;2022-12-08T08:31:39;2.10;99.90
38582;DHT22;24349;53.720;10.014;2022-12-08T08:34:05;2.00;99.90
38582;DHT22;24349;53.720;10.014;2022-12-08T08:36:31;2.00;99.90
38582;DHT22;24349;53.720;10.014;2022-12-08T08:38:56;2.10;99.90
38582;DHT22;24349;53.720;10.014;2022-12-08T08:41:22;2.20;99.90
38582;DHT22;24349;53.720;10.014;2022-12-08T08:43:47;2.30;99.90
38582;DHT22;24349;53.720;10.014;2022-12-08T08:46:13;2.30;99.90
38582;DHT22;24349;53.720;10.014;2022-12-08T08:48:38;2.40;99.90
38582;DHT22;24349;53.720;10.014;2022-12-08T08:51:10;2.50;99.90
38582;DHT22;24349;53.720;10.014;2022-12-08T08:53:36;2.40;99.90
38582;DHT22;24349;53.720;10.014;2022-12-08T08:56:01;2.50;99.90
38582;DHT22;24349;53.720;10.014;2022-12-08T08:58:29;2.30;99.90
38582;DHT22;24349;53.720;10.014;2022-12-08T09:00:55;2.20;99.90
38582;DHT22;24349;53.720;10.014;2022-12-08T09:03:20;2.30;99.90
38582;DHT22;24349;53.720;10.014;2022-12-08T09:05:46;2.30;99.90
38582;DHT22;24349;53.720;10.014;2022-12-08T09:08:12;2.40;99.90
38582;DHT22;24349;53.720;10.014;2022-12-08T09:10:37;2.40;99.90
38582;DHT22;24349;53.720;10.014;2022-12-08T09:13:03;2.50;99.90
38582;DHT22;24349;53.720;10.014;2022-12-08T09:15:28;2.50;99.90
38582;DHT22;24349;53.720;10.014;2022-12-08T09:17:54;2.50;99.90
38582;DHT22;24349;53.720;10.014;2022-12-08T09:20:19;2.50;99.90
38582;DHT22;24349;53.720;10.014;2022-12-08T09:22:45;2.50;99.90
38582;DHT22;24349;53.720;10.014;2022-12-08T09:25:10;2.50;99.90
38582;DHT22;24349;53.720;10.014;2022-12-08T09:27:36;2.50;99.90
38582;DHT22;24349;53.720;10.014;2022-12-08T09:30:01;2.50;99.90
38582;DHT22;24349;53.720;10.014;2022-12-08T09:32:27;2.60;99.90
38582;DHT22;24349;53.720;10.014;2022-12-08T09:34:52;2.60;99.90
38582;DHT22;24349;53.720;10.014;2022-12-08T09:37:18;2.70;99.90
38582;DHT22;24349;53.720;10.014;2022-12-08T09:39:44;2.70;99.90
38582;DHT22;24349;53.720;10.014;2022-12-08T09:42:09;2.70;99.90
38582;DHT22;24349;53.720;10.014;2022-12-08T09:44:49;2.70;99.90
38582;DHT22;24349;53.720;10.014;2022-12-08T09:47:32;2.80;99.90
38582;DHT22;24349;53.720;10.014;2022-12-08T09:50:09;2.80;99.90
38582;DHT22;24349;53.720;10.014;2022-12-08T09:52:46;2.80;99.90
38582;DHT22;24349;53.720;10.014;2022-12-08T09:55:35;2.90;99.90
38582;DHT22;24349;53.720;10.014;2022-12-08T09:58:00;2.80;99.90
38582;DHT22;24349;53.720;10.014;2022-12-08T10:00:27;2.90;99.90
38582;DHT22;24349;53.720;10.014;2022-12-08T10:02:54;2.80;99.90
38582;DHT22;24349;53.720;10.014;2022-12-08T10:05:19;2.80;99.90
38582;DHT22;24349;53.720;10.014;2022-12-08T10:07:47;2.90;99.90
38582;DHT22;24349;53.720;10.014;2022-12-08T10:15:34;2.90;99.90
38582;DHT22;24349;53.720;10.014;2022-12-08T10:18:09;2.80;99.90
38582;DHT22;24349;53.720;10.014;2022-12-08T10:20:37;2.70;99.90
38582;DHT22;24349;53.720;10.014;2022-12-08T10:23:14;2.50;99.90
38582;DHT22;24349;53.720;10.014;2022-12-08T10:28:08;2.60;99.90
38582;DHT22;24349;53.720;10.014;2022-12-08T10:30:34;2.70;99.90
38582;DHT22;24349;53.720;10.014;2022-12-08T10:32:59;2.70;99.90
38582;DHT22;24349;53.720;10.014;2022-12-08T10:35:25;2.90;99.90
38582;DHT22;24349;53.720;10.014;2022-12-08T10:38:03;2.90;99.90
38582;DHT22;24349;53.720;10.014;2022-12-08T10:40:34;3.00;99.90
38582;DHT22;24349;53.720;10.014;2022-12-08T10:43:00;3.00;99.90
38582;DHT22;24349;53.720;10.014;2022-12-08T10:45:29;3.00;99.90
38582;DHT22;24349;53.720;10.014;2022-12-08T10:50:31;3.10;99.90
38582;DHT22;24349;53.720;10.014;2022-12-08T10:53:02;3.20;99.90
38582;DHT22;24349;53.720;10.014;2022-12-08T10:55:42;3.40;99.90
38582;DHT22;24349;53.720;10.014;2022-12-08T10:58:24;3.40;99.90
38582;DHT22;24349;53.720;10.014;2022-12-08T11:00:50;3.40;99.90
38582;DHT22;24349;53.720;10.014;2022-12-08T11:03:26;3.20;99.90
38582;DHT22;24349;53.720;10.014;2022-12-08T11:05:54;3.10;99.90
38582;DHT22;24349;53.720;10.014;2022-12-08T11:08:20;2.90;99.90
38582;DHT22;24349;53.720;10.014;2022-12-08T11:10:45;3.00;99.90
38582;DHT22;24349;53.720;10.014;2022-12-08T11:13:15;3.00;99.90
38582;DHT22;24349;53.720;10.014;2022-12-08T11:15:43;3.00;99.90
38582;DHT22;24349;53.720;10.014;2022-12-08T11:18:20;2.90;99.90
38582;DHT22;24349;53.720;10.014;2022-12-08T11:20:47;2.70;99.90
38582;DHT22;24349;53.720;10.014;2022-12-08T11:23:21;2.80;99.90
38582;DHT22;24349;53.720;10.014;2022-12-08T11:25:48;2.70;99.90
38582;DHT22;24349;53.720;10.014;2022-12-08T11:28:14;2.80;99.90
38582;DHT22;24349;53.720;10.014;2022-12-08T11:30:41;2.90;99.90
38582;DHT22;24349;53.720;10.014;2022-12-08T11:35:38;3.10;99.90
38582;DHT22;24349;53.720;10.014;2022-12-08T11:38:14;3.20;99.90
38582;DHT22;24349;53.720;10.014;2022-12-08T11:40:41;3.30;99.90
38582;DHT22;24349;53.720;10.014;2022-12-08T11:43:14;3.10;99.90
38582;DHT22;24349;53.720;10.014;2022-12-08T11:45:42;2.80;99.90
38582;DHT22;24349;53.720;10.014;2022-12-08T11:48:17;2.60;99.90
38582;DHT22;24349;53.720;10.014;2022-12-08T11:50:58;2.60;99.90
38582;DHT22;24349;53.720;10.014;2022-12-08T11:53:29;2.80;99.90
38582;DHT22;24349;53.720;10.014;2022-12-08T11:55:59;2.80;99.90
38582;DHT22;24349;53.720;10.014;2022-12-08T11:58:37;3.00;99.90
38582;DHT22;24349;53.720;10.014;2022-12-08T12:01:03;3.10;99.90
38582;DHT22;24349;53.720;10.014;2022-12-08T12:03:38;3.20;99.90
38582;DHT22;24349;53.720;10.014;2022-12-08T12:19:18;3.00;99.90
38582;DHT22;24349;53.720;10.014;2022-12-08T12:21:49;3.10;99.90
38582;DHT22;24349;53.720;10.014;2022-12-08T12:24:19;3.10;99.90
38582;DHT22;24349;53.720;10.014;2022-12-08T12:29:16;2.90;99.90
38582;DHT22;24349;53.720;10.014;2022-12-08T12:31:47;2.60;99.90
38582;DHT22;24349;53.720;10.014;2022-12-08T12:34:18;2.60;99.90
38582;DHT22;24349;53.720;10.014;2022-12-08T12:39:13;2.60;99.90
38582;DHT22;24349;53.720;10.014;2022-12-08T12:41:53;2.60;99.90
38582;DHT22;24349;53.720;10.014;2022-12-08T12:52:00;2.70;99.90
38582;DHT22;24349;53.720;10.014;2022-12-08T12:54:25;2.80;99.90
38582;DHT22;24349;53.720;10.014;2022-12-08T12:56:52;2.80;99.90
38582;DHT22;24349;53.720;10.014;2022-12-08T13:01:53;2.70;99.90
38582;DHT22;24349;53.720;10.014;2022-12-08T13:04:26;2.80;99.90
38582;DHT22;24349;53.720;10.014;2022-12-08T13:06:53;2.90;99.90
38582;DHT22;24349;53.720;10.014;2022-12-08T13:09:29;3.20;99.90
38582;DHT22;24349;53.720;10.014;2022-12-08T13:11:57;3.40;99.90
38582;DHT22;24349;53.720;10.014;2022-12-08T13:14:30;3.50;99.90
38582;DHT22;24349;53.720;10.014;2022-12-08T13:16:57;3.40;99.90
38582;DHT22;24349;53.720;10.014;2022-12-08T13:19:23;3.30;99.90
38582;DHT22;24349;53.720;10.014;2022-12-08T13:21:49;3.00;99.90
38582;DHT22;24349;53.720;10.014;2022-12-08T13:29:30;2.70;99.90
38582;DHT22;24349;53.720;10.014;2022-12-08T13:42:14;3.00;99.90
38582;DHT22;24349;53.720;10.014;2022-12-08T13:44:44;3.00;99.90
38582;DHT22;24349;53.720;10.014;2022-12-08T13:47:11;3.10;99.90
38582;DHT22;24349;53.720;10.014;2022-12-08T13:49:42;3.20;99.90
38582;DHT22;24349;53.720;10.014;2022-12-08T13:56:10;3.10;99.90
38582;DHT22;24349;53.720;10.014;2022-12-08T13:58:05;3.10;99.90
38582;DHT22;24349;53.720;10.014;2022-12-08T14:00:30;3.00;99.90
38582;DHT22;24349;53.720;10.014;2022-12-08T14:02:58;2.90;99.90
38582;DHT22;24349;53.720;10.014;2022-12-08T14:05:24;2.90;99.90
38582;DHT22;24349;53.720;10.014;2022-12-08T14:07:53;2.90;99.90
38582;DHT22;24349;53.720;10.014;2022-12-08T14:10:24;2.80;99.90
38582;DHT22;24349;53.720;10.014;2022-12-08T14:12:53;2.70;99.90
38582;DHT22;24349;53.720;10.014;2022-12-08T14:15:19;2.60;99.90
38582;DHT22;24349;53.720;10.014;2022-12-08T14:17:52;2.60;99.90
38582;DHT22;24349;53.720;10.014;2022-12-08T14:20:30;2.60;99.90
38582;DHT22;24349;53.720;10.014;2022-12-08T14:22:56;2.60;99.90
38582;DHT22;24349;53.720;10.014;2022-12-08T14:25:24;2.50;99.90
38582;DHT22;24349;53.720;10.014;2022-12-08T14:27:50;2.40;99.90
38582;DHT22;24349;53.720;10.014;2022-12-08T14:30:23;2.40;99.90
38582;DHT22;24349;53.720;10.014;2022-12-08T14:32:50;2.30;99.90
38582;DHT22;24349;53.720;10.014;2022-12-08T14:35:18;2.30;99.90
38582;DHT22;24349;53.720;10.014;2022-12-08T14:37:45;2.30;99.90
38582;DHT22;24349;53.720;10.014;2022-12-08T14:40:19;2.30;99.90
38582;DHT22;24349;53.720;10.014;2022-12-08T14:42:46;2.40;99.90
38582;DHT22;24349;53.720;10.014;2022-12-08T14:45:13;2.40;99.90
38582;DHT22;24349;53.720;10.014;2022-12-08T14:47:40;2.50;99.90
38582;DHT22;24349;53.720;10.014;2022-12-08T14:52:49;2.60;99.90
38582;DHT22;24349;53.720;10.014;2022-12-08T14:55:15;2.70;99.90
38582;DHT22;24349;53.720;10.014;2022-12-08T14:57:41;2.70;99.90
38582;DHT22;24349;53.720;10.014;2022-12-08T15:00:08;2.80;99.90
38582;DHT22;24349;53.720;10.014;2022-12-08T15:02:35;2.80;99.90
38582;DHT22;24349;53.720;10.014;2022-12-08T15:05:13;2.70;99.90
38582;DHT22;24349;53.720;10.014;2022-12-08T15:07:44;2.70;99.90
38582;DHT22;24349;53.720;10.014;2022-12-08T15:12:39;2.80;99.90
38582;DHT22;24349;53.720;10.014;2022-12-08T15:17:49;2.80;99.90
38582;DHT22;24349;53.720;10.014;2022-12-08T15:20:26;2.70;99.90
38582;DHT22;24349;53.720;10.014;2022-12-08T15:22:53;2.80;99.90
38582;DHT22;24349;53.720;10.014;2022-12-08T15:25:19;2.70;99.90
38582;DHT22;24349;53.720;10.014;2022-12-08T15:27:44;2.60;99.90
38582;DHT22;24349;53.720;10.014;2022-12-08T15:30:14;2.40;99.90
38582;DHT22;24349;53.720;10.014;2022-12-08T15:32:39;2.40;99.90
38582;DHT22;24349;53.720;10.014;2022-12-08T15:35:05;2.30;99.90
38582;DHT22;24349;53.720;10.014;2022-12-08T15:37:31;2.40;99.90
38582;DHT22;24349;53.720;10.014;2022-12-08T15:39:56;2.40;99.90
38582;DHT22;24349;53.720;10.014;2022-12-08T15:42:22;2.40;99.90
38582;DHT22;24349;53.720;10.014;2022-12-08T15:44:47;2.40;99.90
38582;DHT22;24349;53.720;10.014;2022-12-08T15:47:20;2.50;99.90
38582;DHT22;24349;53.720;10.014;2022-12-08T15:49:46;2.50;99.90
38582;DHT22;24349;53.720;10.014;2022-12-08T15:52:13;2.50;99.90
38582;DHT22;24349;53.720;10.014;2022-12-08T15:54:39;2.50;99.90
38582;DHT22;24349;53.720;10.014;2022-12-08T15:57:04;2.60;99.90
38582;DHT22;24349;53.720;10.014;2022-12-08T15:59:30;2.60;99.90
38582;DHT22;24349;53.720;10.014;2022-12-08T16:01:56;2.70;99.90
38582;DHT22;24349;53.720;10.014;2022-12-08T16:04:21;2.70;99.90
38582;DHT22;24349;53.720;10.014;2022-12-08T16:06:48;2.60;99.90
38582;DHT22;24349;53.720;10.014;2022-12-08T16:11:39;2.50;99.90
38582;DHT22;24349;53.720;10.014;2022-12-08T16:14:24;2.50;99.90
38582;DHT22;24349;53.720;10.014;2022-12-08T16:16:49;2.50;99.90
38582;DHT22;24349;53.720;10.014;2022-12-08T16:19:15;2.40;99.90
38582;DHT22;24349;53.720;10.014;2022-12-08T16:21:40;2.40;99.90
38582;DHT22;24349;53.720;10.014;2022-12-08T16:24:06;2.40;99.90
38582;DHT22;24349;53.720;10.014;2022-12-08T16:26:31;2.50;99.90
38582;DHT22;24349;53.720;10.014;2022-12-08T16:28:57;2.40;99.90
38582;DHT22;24349;53.720;10.014;2022-12-08T16:31:22;2.20;99.90
38582;DHT22;24349;53.720;10.014;2022-12-08T16:33:48;2.20;99.90
38582;DHT22;24349;53.720;10.014;2022-12-08T16:36:13;2.20;99.90
38582;DHT22;24349;53.720;10.014;2022-12-08T16:38:38;2.10;99.90
38582;DHT22;24349;53.720;10.014;2022-12-08T16:41:04;2.20;99.90
38582;DHT22;24349;53.720;10.014;2022-12-08T16:43:48;2.20;99.90
38582;DHT22;24349;53.720;10.014;2022-12-08T16:46:16;2.30;99.90
38582;DHT22;24349;53.720;10.014;2022-12-08T16:48:42;2.40;99.90
38582;DHT22;24349;53.720;10.014;2022-12-08T16:51:13;2.40;99.90
38582;DHT22;24349;53.720;10.014;2022-12-08T16:53:39;2.40;99.90
38582;DHT22;24349;53.720;10.014;2022-12-08T16:56:04;2.30;99.90
38582;DHT22;24349;53.720;10.014;2022-12-08T16:58:30;2.30;99.90
38582;DHT22;24349;53.720;10.014;2022-12-08T17:00:55;2.30;99.90
38582;DHT22;24349;53.720;10.014;2022-12-08T17:03:21;2.30;99.90
38582;DHT22;24349;53.720;10.014;2022-12-08T17:05:46;2.30;99.90
38582;DHT22;24349;53.720;10.014;2022-12-08T17:08:12;2.30;99.90
38582;DHT22;24349;53.720;10.014;2022-12-08T17:10:38;2.20;99.90
38582;DHT22;24349;53.720;10.014;2022-12-08T17:13:04;2.00;99.90
38582;DHT22;24349;53.720;10.014;2022-12-08T17:15:30;2.00;99.90
38582;DHT22;24349;53.720;10.014;2022-12-08T17:17:55;2.00;99.90
38582;DHT22;24349;53.720;10.014;2022-12-08T17:20:25;2.00;99.90
38582;DHT22;24349;53.720;10.014;2022-12-08T17:22:54;2.10;99.90
38582;DHT22;24349;53.720;10.014;2022-12-08T17:25:20;2.10;99.90